KMIW/MIW METAR and TAF weather

Enter ICAO airport designator
Station Type Date Time Source
KMIW METAR 2021/09/23 23:53 UTC NOAA

KMIW 232353Z AUTO 18005KT 10SM CLR 19/04 A2996 RMK AO2 SLP147 T01940044 10233 20194 56009


Station Type Date Time Source
KMIW Decoded METAR 2021/09/23 23:53 UTC NOAA

MARSHALLTOWN MUNICIPAL AIRPORT , IA, United States (KMIW) 42-07N 92-55W 296M
Sep 23, 2021 - 07:53 PM EDT / 2021.09.23 2353 UTC
Wind: from the S (180 degrees) at 6 MPH (5 KT):0
Visibility: 10 mile(s):0
Sky conditions: clear
Temperature: 66.9 F (19.4 C)
Dew Point: 39.9 F (4.4 C)
Relative Humidity: 37%
Pressure (altimeter): 29.96 in. Hg (1014 hPa)
Pressure tendency: 0.03 inches (0.9 hPa) lower than three hours ago
ob: KMIW 232353Z AUTO 18005KT 10SM CLR 19/04 A2996 RMK AO2 SLP147 T01940044 10233 20194 56009
cycle: 0

Station Type Date Time Source
KMIW TAF UTC NOAA

Error!

Example: see airport list